Terminal Aerodrome Forecast
Issued by NWS Wilmington, OH

Current Version | Previous Version | Graphics & Text | Print | Product List | Glossary On
Versions: 1 2 3 4 5 6 7 8 9 10 11 12 13 14 15 16 17
000
FTUS41 KILN 292300 RRA
TAFDAY
TAF
KDAY 292343Z 3000/3024 20012KT P6SM -SHRA BKN040 OVC080
     FM300200 23012KT P6SM BKN040 OVC080
     FM300500 25014KT P6SM VCSH SCT025 BKN040
     FM300700 28012G20KT P6SM SCT022
      TEMPO 3009/3012 BKN022
     FM301600 28014G22KT P6SM SCT040
     FM302200 24011KT P6SM BKN080=

USA.gov is the U.S. government's official web portal to all federal, state and local government web resources and services.